Porter, Indiana
Current Conditions -  °F | °C
As of 6:56 PM on Sunday 23 Nov 2014 (Local Time) from KVPZ Reporting Station
Moderate Rain Moderate Rain  
Wind Chill: 50°   Ceiling: 400
Heat Index: 50°   Visibility: 4mi
Dew Point: 50°   Wind: 9mph
Humidity: 100%   Direction: 110°ESE
Pressure: 29.34"   Gusts: NA
Location:  41.6139°N, 87.0454°W
Report Text: KVPZ 240056Z AUTO 11008KT 4SM RA BR BKN004 OVC023 10/10 A2934 RMK AO2 PRESFR SLP938 P0017 T01000100 TSNO
Loading
Personal Weather Stations






























Interactive Weather Map New forecast layout! Learn more

10-Day Weather Forecast

Advertisements
Track Severe Weather on mobile